Time,TemperatureF,DewpointF,PressureIn,WindDirection,WindDirectionDegrees,WindSpeedMPH,WindSpeedGustMPH,Humidity,HourlyPrecipIn,Conditions,Clouds,dailyrainin,SoftwareType,DateUTC
2013-04-17 00:07:00,67.8,61.4,30.15,SW,225,1.0,5.0,80,0.00,,,0.00,Wunderground v.1.15,2013-04-17 04:07:00,
2013-04-17 00:12:00,67.9,61.1,30.15,SW,225,0.0,5.0,79,0.00,,,0.00,Wunderground v.1.15,2013-04-17 04:12:00,
2013-04-17 00:18:00,67.6,61.2,30.15,SW,225,0.0,1.0,80,0.00,,,0.00,Wunderground v.1.15,2013-04-17 04:18:00,
2013-04-17 00:23:00,67.3,61.3,30.15,SW,225,0.0,0.0,81,0.00,,,0.00,Wunderground v.1.15,2013-04-17 04:23:00,
2013-04-17 00:28:00,67.1,61.1,30.15,SW,225,0.0,2.0,81,0.00,,,0.00,Wunderground v.1.15,2013-04-17 04:28:00,
2013-04-17 00:33:00,67.0,61.0,30.15,SW,225,0.0,1.0,81,0.00,,,0.00,Wunderground v.1.15,2013-04-17 04:33:00,
2013-04-17 00:38:00,67.0,61.0,30.16,SW,225,3.0,3.0,81,0.00,,,0.00,Wunderground v.1.15,2013-04-17 04:38:00,
2013-04-17 00:44:00,67.0,61.0,30.16,SW,225,2.0,2.0,81,0.00,,,0.00,Wunderground v.1.15,2013-04-17 04:44:00,
2013-04-17 00:49:00,66.9,61.2,30.16,SW,225,2.0,2.0,82,0.00,,,0.00,Wunderground v.1.15,2013-04-17 04:49:00,
2013-04-17 00:55:00,66.9,61.2,30.16,SW,225,2.0,2.0,82,0.00,,,0.00,Wunderground v.1.15,2013-04-17 04:55:00,
2013-04-17 01:00:00,66.8,61.1,30.16,SW,225,0.0,2.0,82,0.00,,,0.00,Wunderground v.1.15,2013-04-17 05:00:00,
2013-04-17 01:05:00,66.5,60.8,30.16,SW,225,0.0,1.0,82,0.00,,,0.00,Wunderground v.1.15,2013-04-17 05:05:00,
2013-04-17 01:11:00,66.4,61.1,30.16,SW,225,2.0,3.0,83,0.00,,,0.00,Wunderground v.1.15,2013-04-17 05:11:00,
2013-04-17 01:16:00,66.4,61.1,30.16,SW,225,3.0,3.0,83,0.00,,,0.00,Wunderground v.1.15,2013-04-17 05:16:00,
2013-04-17 01:22:00,66.5,60.8,30.16,SW,224,3.0,4.0,82,0.00,,,0.00,Wunderground v.1.15,2013-04-17 05:22:00,
2013-04-17 01:27:00,66.4,60.7,30.16,SW,224,3.0,4.0,82,0.00,,,0.00,Wunderground v.1.15,2013-04-17 05:27:00,
2013-04-17 01:32:00,66.3,60.6,30.16,SW,224,2.0,3.0,82,0.00,,,0.00,Wunderground v.1.15,2013-04-17 05:32:00,
2013-04-17 01:37:00,66.2,60.9,30.16,SW,224,3.0,4.0,83,0.00,,,0.00,Wunderground v.1.15,2013-04-17 05:37:00,
2013-04-17 01:43:00,66.0,60.7,30.16,SW,224,0.0,3.0,83,0.00,,,0.00,Wunderground v.1.15,2013-04-17 05:43:00,
2013-04-17 01:48:00,65.8,60.5,30.16,SW,224,0.0,3.0,83,0.00,,,0.00,Wunderground v.1.15,2013-04-17 05:48:00,
2013-04-17 01:53:00,65.5,60.5,30.16,SW,224,0.0,0.0,84,0.00,,,0.00,Wunderground v.1.15,2013-04-17 05:53:00,
2013-04-17 01:59:00,65.3,60.7,30.16,SW,224,0.0,0.0,85,0.00,,,0.00,Wunderground v.1.15,2013-04-17 05:59:00,
2013-04-17 02:04:00,65.1,60.5,30.16,SW,224,0.0,0.0,85,0.00,,,0.00,Wunderground v.1.15,2013-04-17 06:04:00,
2013-04-17 02:09:00,65.0,60.4,30.16,SW,224,0.0,0.0,85,0.00,,,0.00,Wunderground v.1.15,2013-04-17 06:09:00,
2013-04-17 02:15:00,64.9,60.6,30.16,SW,224,0.0,0.0,86,0.00,,,0.00,Wunderground v.1.15,2013-04-17 06:15:00,
2013-04-17 02:20:00,64.8,60.5,30.16,SW,224,0.0,0.0,86,0.00,,,0.00,Wunderground v.1.15,2013-04-17 06:20:00,
2013-04-17 02:25:00,64.6,60.3,30.16,SW,224,0.0,0.0,86,0.00,,,0.00,Wunderground v.1.15,2013-04-17 06:25:00,
2013-04-17 02:30:00,64.4,59.8,30.15,SW,224,0.0,0.0,85,0.00,,,0.00,Wunderground v.1.15,2013-04-17 06:30:00,
2013-04-17 02:35:00,64.1,59.8,30.15,SW,224,0.0,0.0,86,0.00,,,0.00,Wunderground v.1.15,2013-04-17 06:35:00,
2013-04-17 02:40:00,63.7,59.8,30.15,SW,224,0.0,0.0,87,0.00,,,0.00,Wunderground v.1.15,2013-04-17 06:40:00,
2013-04-17 02:45:00,63.4,59.5,30.16,SW,224,0.0,0.0,87,0.00,,,0.00,Wunderground v.1.15,2013-04-17 06:45:00,
2013-04-17 02:50:00,63.1,59.5,30.15,SW,224,0.0,0.0,88,0.00,,,0.00,Wunderground v.1.15,2013-04-17 06:50:00,
2013-04-17 02:55:00,62.9,59.3,30.16,SW,224,0.0,0.0,88,0.00,,,0.00,Wunderground v.1.15,2013-04-17 06:55:00,
2013-04-17 03:00:00,62.8,59.2,30.16,SW,224,0.0,0.0,88,0.00,,,0.00,Wunderground v.1.15,2013-04-17 07:00:00,
2013-04-17 03:05:00,62.4,58.8,30.16,SW,224,0.0,0.0,88,0.00,,,0.00,Wunderground v.1.15,2013-04-17 07:05:00,
2013-04-17 03:10:00,61.9,58.3,30.16,SW,224,0.0,0.0,88,0.00,,,0.00,Wunderground v.1.15,2013-04-17 07:10:00,
2013-04-17 03:15:00,61.6,58.3,30.15,SW,224,0.0,0.0,89,0.00,,,0.00,Wunderground v.1.15,2013-04-17 07:15:00,
2013-04-17 03:21:00,61.9,59.2,30.15,SW,224,0.0,0.0,91,0.00,,,0.00,Wunderground v.1.15,2013-04-17 07:21:00,
2013-04-17 03:26:00,62.0,59.0,30.16,SW,224,0.0,0.0,90,0.00,,,0.00,Wunderground v.1.15,2013-04-17 07:26:00,
2013-04-17 03:31:00,62.0,59.0,30.16,SW,224,0.0,0.0,90,0.00,,,0.00,Wunderground v.1.15,2013-04-17 07:31:00,
2013-04-17 03:36:00,61.7,58.7,30.15,SW,224,0.0,0.0,90,0.00,,,0.00,Wunderground v.1.15,2013-04-17 07:36:00,
2013-04-17 03:41:00,61.5,58.5,30.16,SW,224,0.0,0.0,90,0.00,,,0.00,Wunderground v.1.15,2013-04-17 07:41:00,
2013-04-17 03:46:00,61.6,58.9,30.16,SW,224,0.0,0.0,91,0.00,,,0.00,Wunderground v.1.15,2013-04-17 07:46:00,
2013-04-17 03:51:00,61.9,59.5,30.16,SW,224,0.0,0.0,92,0.00,,,0.00,Wunderground v.1.15,2013-04-17 07:51:00,
2013-04-17 03:56:00,62.2,59.5,30.16,SW,224,0.0,0.0,91,0.00,,,0.00,Wunderground v.1.15,2013-04-17 07:56:00,
2013-04-17 04:01:00,62.3,59.6,30.17,SW,224,0.0,0.0,91,0.00,,,0.00,Wunderground v.1.15,2013-04-17 08:01:00,
2013-04-17 04:06:00,62.3,59.3,30.16,SW,224,0.0,0.0,90,0.00,,,0.00,Wunderground v.1.15,2013-04-17 08:06:00,
2013-04-17 04:11:00,62.2,59.2,30.16,SW,224,0.0,0.0,90,0.00,,,0.00,Wunderground v.1.15,2013-04-17 08:11:00,
2013-04-17 04:16:00,62.1,59.1,30.17,SW,224,0.0,0.0,90,0.00,,,0.00,Wunderground v.1.15,2013-04-17 08:16:00,
2013-04-17 04:21:00,61.9,58.9,30.17,SW,224,0.0,0.0,90,0.00,,,0.00,Wunderground v.1.15,2013-04-17 08:21:00,
2013-04-17 04:26:00,61.4,58.1,30.17,SW,224,0.0,0.0,89,0.00,,,0.00,Wunderground v.1.15,2013-04-17 08:26:00,
2013-04-17 04:31:00,60.8,57.5,30.17,SW,224,0.0,0.0,89,0.00,,,0.00,Wunderground v.1.15,2013-04-17 08:31:00,
2013-04-17 04:36:00,60.3,57.4,30.17,SW,224,0.0,0.0,90,0.00,,,0.00,Wunderground v.1.15,2013-04-17 08:36:00,
2013-04-17 04:41:00,60.0,57.1,30.17,SW,224,0.0,0.0,90,0.00,,,0.00,Wunderground v.1.15,2013-04-17 08:41:00,
2013-04-17 04:46:00,59.8,57.2,30.17,SW,224,0.0,0.0,91,0.00,,,0.00,Wunderground v.1.15,2013-04-17 08:46:00,
2013-04-17 04:52:00,59.6,57.3,30.17,SW,224,0.0,0.0,92,0.00,,,0.00,Wunderground v.1.15,2013-04-17 08:52:00,
2013-04-17 04:57:00,59.5,57.2,30.17,SW,224,0.0,0.0,92,0.00,,,0.00,Wunderground v.1.15,2013-04-17 08:57:00,
2013-04-17 05:02:00,59.4,57.1,30.17,SW,224,0.0,0.0,92,0.00,,,0.00,Wunderground v.1.15,2013-04-17 09:02:00,
2013-04-17 05:07:00,59.1,56.5,30.17,SW,224,0.0,0.0,91,0.00,,,0.00,Wunderground v.1.15,2013-04-17 09:07:00,
2013-04-17 05:12:00,59.0,56.7,30.17,SW,224,0.0,0.0,92,0.00,,,0.00,Wunderground v.1.15,2013-04-17 09:12:00,
2013-04-17 05:17:00,58.9,56.9,30.17,SW,224,0.0,0.0,93,0.00,,,0.00,Wunderground v.1.15,2013-04-17 09:17:00,
2013-04-17 05:22:00,59.0,57.3,30.17,SW,224,0.0,0.0,94,0.00,,,0.00,Wunderground v.1.15,2013-04-17 09:22:00,
2013-04-17 05:27:00,59.2,57.5,30.17,SW,224,0.0,0.0,94,0.00,,,0.00,Wunderground v.1.15,2013-04-17 09:27:00,
2013-04-17 05:32:00,59.2,57.5,30.17,SW,224,0.0,0.0,94,0.00,,,0.00,Wunderground v.1.15,2013-04-17 09:32:00,
2013-04-17 05:37:00,59.2,57.2,30.17,SW,224,0.0,0.0,93,0.00,,,0.00,Wunderground v.1.15,2013-04-17 09:37:00,
2013-04-17 05:42:00,59.2,57.2,30.17,SW,224,0.0,0.0,93,0.00,,,0.00,Wunderground v.1.15,2013-04-17 09:42:00,
2013-04-17 05:47:00,59.2,57.5,30.17,SW,224,0.0,0.0,94,0.00,,,0.00,Wunderground v.1.15,2013-04-17 09:47:00,
2013-04-17 05:52:00,59.2,57.5,30.17,SW,224,0.0,0.0,94,0.00,,,0.00,Wunderground v.1.15,2013-04-17 09:52:00,
2013-04-17 05:57:00,59.2,57.5,30.18,SW,224,0.0,0.0,94,0.00,,,0.00,Wunderground v.1.15,2013-04-17 09:57:00,
2013-04-17 06:02:00,58.9,56.9,30.18,SW,224,0.0,0.0,93,0.00,,,0.00,Wunderground v.1.15,2013-04-17 10:02:00,
2013-04-17 06:07:00,58.6,56.3,30.18,SW,224,0.0,0.0,92,0.00,,,0.00,Wunderground v.1.15,2013-04-17 10:07:00,
2013-04-17 06:12:00,58.3,56.3,30.18,SW,224,0.0,0.0,93,0.00,,,0.00,Wunderground v.1.15,2013-04-17 10:12:00,
2013-04-17 06:18:00,58.1,56.1,30.18,SW,224,0.0,0.0,93,0.00,,,0.00,Wunderground v.1.15,2013-04-17 10:18:00,
2013-04-17 06:23:00,57.9,55.9,30.18,SW,224,0.0,0.0,93,0.00,,,0.00,Wunderground v.1.15,2013-04-17 10:23:00,
2013-04-17 06:28:00,57.8,55.8,30.18,SW,224,0.0,0.0,93,0.00,,,0.00,Wunderground v.1.15,2013-04-17 10:28:00,
2013-04-17 06:33:00,57.7,55.7,30.18,SW,224,0.0,0.0,93,0.00,,,0.00,Wunderground v.1.15,2013-04-17 10:33:00,
2013-04-17 06:38:00,57.6,55.6,30.18,SW,224,0.0,0.0,93,0.00,,,0.00,Wunderground v.1.15,2013-04-17 10:38:00,
2013-04-17 06:43:00,57.4,55.4,30.18,SW,224,0.0,0.0,93,0.00,,,0.00,Wunderground v.1.15,2013-04-17 10:43:00,
2013-04-17 06:48:00,57.3,55.0,30.18,SW,224,0.0,0.0,92,0.00,,,0.00,Wunderground v.1.15,2013-04-17 10:48:00,
2013-04-17 06:53:00,57.2,55.2,30.17,SW,224,0.0,0.0,93,0.00,,,0.00,Wunderground v.1.15,2013-04-17 10:53:00,
2013-04-17 06:58:00,57.2,55.5,30.18,SW,224,0.0,0.0,94,0.00,,,0.00,Wunderground v.1.15,2013-04-17 10:58:00,
2013-04-17 07:03:00,57.3,55.6,30.18,SW,224,0.0,0.0,94,0.00,,,0.00,Wunderground v.1.15,2013-04-17 11:03:00,
2013-04-17 07:09:00,57.4,55.7,30.18,SW,224,0.0,0.0,94,0.00,,,0.00,Wunderground v.1.15,2013-04-17 11:09:00,
2013-04-17 07:14:00,57.4,55.7,30.18,SW,224,0.0,0.0,94,0.00,,,0.00,Wunderground v.1.15,2013-04-17 11:14:00,
2013-04-17 07:19:00,57.4,55.7,30.18,SW,224,0.0,0.0,94,0.00,,,0.00,Wunderground v.1.15,2013-04-17 11:19:00,
2013-04-17 07:24:00,57.4,55.7,30.18,SW,224,0.0,0.0,94,0.00,,,0.00,Wunderground v.1.15,2013-04-17 11:24:00,
2013-04-17 07:29:00,57.5,55.8,30.18,SW,224,0.0,0.0,94,0.00,,,0.00,Wunderground v.1.15,2013-04-17 11:29:00,
2013-04-17 07:34:00,57.6,56.2,30.18,SW,224,0.0,0.0,95,0.00,,,0.00,Wunderground v.1.15,2013-04-17 11:34:00,
2013-04-17 07:39:00,57.7,56.3,30.19,SW,224,0.0,0.0,95,0.00,,,0.00,Wunderground v.1.15,2013-04-17 11:39:00,
2013-04-17 07:44:00,57.8,56.1,30.19,SW,224,0.0,0.0,94,0.00,,,0.00,Wunderground v.1.15,2013-04-17 11:44:00,
2013-04-17 07:49:00,57.8,55.8,30.19,SW,224,0.0,0.0,93,0.00,,,0.00,Wunderground v.1.15,2013-04-17 11:49:00,
2013-04-17 07:54:00,57.8,55.8,30.19,SW,224,0.0,0.0,93,0.00,,,0.00,Wunderground v.1.15,2013-04-17 11:54:00,
2013-04-17 07:59:00,57.9,55.9,30.19,SW,224,0.0,0.0,93,0.00,,,0.00,Wunderground v.1.15,2013-04-17 11:59:00,
2013-04-17 08:04:00,58.1,56.4,30.19,SW,224,0.0,0.0,94,0.00,,,0.00,Wunderground v.1.15,2013-04-17 12:04:00,
2013-04-17 08:09:00,58.6,56.9,30.19,SW,224,0.0,0.0,94,0.00,,,0.00,Wunderground v.1.15,2013-04-17 12:09:00,
2013-04-17 08:14:00,59.0,57.3,30.19,SW,224,0.0,0.0,94,0.00,,,0.00,Wunderground v.1.15,2013-04-17 12:14:00,
2013-04-17 08:19:00,59.5,58.1,30.19,SW,224,0.0,0.0,95,0.00,,,0.00,Wunderground v.1.15,2013-04-17 12:19:00,
2013-04-17 08:24:00,60.0,58.6,30.19,ESE,116,0.0,0.0,95,0.00,,,0.00,Wunderground v.1.15,2013-04-17 12:24:00,
2013-04-17 08:29:00,60.5,59.4,30.19,ESE,116,0.0,0.0,96,0.00,,,0.00,Wunderground v.1.15,2013-04-17 12:29:00,
2013-04-17 08:34:00,61.0,59.9,30.20,ESE,116,0.0,0.0,96,0.00,,,0.00,Wunderground v.1.15,2013-04-17 12:34:00,
2013-04-17 08:39:00,61.4,60.0,30.20,ENE,57,0.0,0.0,95,0.00,,,0.00,Wunderground v.1.15,2013-04-17 12:39:00,
2013-04-17 08:44:00,61.9,60.5,30.20,ENE,57,0.0,0.0,95,0.00,,,0.00,Wunderground v.1.15,2013-04-17 12:44:00,
2013-04-17 08:49:00,62.5,60.4,30.20,ENE,57,0.0,0.0,93,0.00,,,0.00,Wunderground v.1.15,2013-04-17 12:49:00,
2013-04-17 08:54:00,63.0,60.9,30.20,ENE,57,0.0,0.0,93,0.00,,,0.00,Wunderground v.1.15,2013-04-17 12:54:00,
2013-04-17 08:59:00,63.7,61.3,30.20,ENE,57,0.0,0.0,92,0.00,,,0.00,Wunderground v.1.15,2013-04-17 12:59:00,
2013-04-17 09:05:00,64.2,61.5,30.19,ENE,57,0.0,0.0,91,0.00,,,0.00,Wunderground v.1.15,2013-04-17 13:05:00,
2013-04-17 09:09:00,64.7,61.7,30.19,ENE,57,0.0,0.0,90,0.00,,,0.00,Wunderground v.1.15,2013-04-17 13:09:00,
2013-04-17 09:14:00,65.4,62.1,30.19,ENE,57,0.0,0.0,89,0.00,,,0.00,Wunderground v.1.15,2013-04-17 13:14:00,
2013-04-17 09:19:00,66.2,61.9,30.19,ENE,57,0.0,0.0,86,0.00,,,0.00,Wunderground v.1.15,2013-04-17 13:19:00,
2013-04-17 09:24:00,66.9,62.2,30.19,South,175,0.0,1.0,85,0.00,,,0.00,Wunderground v.1.15,2013-04-17 13:24:00,
2013-04-17 09:29:00,67.4,62.4,30.18,South,175,0.0,1.0,84,0.00,,,0.00,Wunderground v.1.15,2013-04-17 13:29:00,
2013-04-17 09:35:00,67.9,62.2,30.18,SW,231,0.0,4.0,82,0.00,,,0.00,Wunderground v.1.15,2013-04-17 13:35:00,
2013-04-17 09:40:00,68.4,62.3,30.18,South,182,0.0,5.0,81,0.00,,,0.00,Wunderground v.1.15,2013-04-17 13:40:00,
2013-04-17 09:45:00,68.8,62.7,30.18,South,182,0.0,1.0,81,0.00,,,0.00,Wunderground v.1.15,2013-04-17 13:45:00,
2013-04-17 09:50:00,69.4,62.6,30.18,South,182,0.0,1.0,79,0.00,,,0.00,Wunderground v.1.15,2013-04-17 13:50:00,
2013-04-17 09:55:00,70.0,63.9,30.19,South,182,0.0,0.0,81,0.00,,,0.00,Wunderground v.1.15,2013-04-17 13:55:00,
2013-04-17 10:00:00,70.6,63.0,30.19,South,182,3.0,3.0,77,0.00,,,0.00,Wunderground v.1.15,2013-04-17 14:00:00,
2013-04-17 10:05:00,70.8,62.1,30.19,South,184,1.0,1.0,74,0.00,,,0.00,Wunderground v.1.15,2013-04-17 14:05:00,
2013-04-17 10:10:00,71.3,63.3,30.19,WSW,246,0.0,6.0,76,0.00,,,0.00,Wunderground v.1.15,2013-04-17 14:10:00,
2013-04-17 10:15:00,71.6,63.3,30.19,WSW,245,0.0,2.0,75,0.00,,,0.00,Wunderground v.1.15,2013-04-17 14:15:00,
2013-04-17 10:20:00,71.8,63.1,30.18,East,85,1.0,3.0,74,0.00,,,0.00,Wunderground v.1.15,2013-04-17 14:20:00,
2013-04-17 10:25:00,72.1,63.4,30.18,East,86,0.0,1.0,74,0.00,,,0.00,Wunderground v.1.15,2013-04-17 14:25:00,
2013-04-17 10:30:00,72.4,64.0,30.18,NE,50,1.0,3.0,75,0.00,,,0.00,Wunderground v.1.15,2013-04-17 14:30:00,
2013-04-17 10:35:00,72.8,62.4,30.18,SSW,209,3.0,4.0,70,0.00,,,0.00,Wunderground v.1.15,2013-04-17 14:35:00,
2013-04-17 10:40:00,73.2,62.4,30.18,South,190,5.0,5.0,69,0.00,,,0.00,Wunderground v.1.15,2013-04-17 14:40:00,
2013-04-17 10:45:00,73.7,62.1,30.18,SSW,205,1.0,4.0,67,0.00,,,0.00,Wunderground v.1.15,2013-04-17 14:45:00,
2013-04-17 10:50:00,73.9,62.2,30.18,SSW,205,0.0,4.0,67,0.00,,,0.00,Wunderground v.1.15,2013-04-17 14:50:00,
2013-04-17 10:55:00,74.1,62.4,30.18,SSW,205,0.0,1.0,67,0.00,,,0.00,Wunderground v.1.15,2013-04-17 14:55:00,
2013-04-17 11:00:00,74.5,62.0,30.18,SSW,205,1.0,5.0,65,0.00,,,0.00,Wunderground v.1.15,2013-04-17 15:00:00,
2013-04-17 11:05:00,74.7,62.1,30.17,SSW,205,0.0,2.0,65,0.00,,,0.00,Wunderground v.1.15,2013-04-17 15:05:00,
2013-04-17 11:10:00,74.9,62.8,30.17,SSW,205,1.0,3.0,66,0.00,,,0.00,Wunderground v.1.15,2013-04-17 15:10:00,
2013-04-17 11:15:00,75.4,62.4,30.17,South,188,0.0,3.0,64,0.00,,,0.00,Wunderground v.1.15,2013-04-17 15:15:00,
2013-04-17 11:20:00,75.9,63.3,30.17,SE,134,0.0,4.0,65,0.00,,,0.00,Wunderground v.1.15,2013-04-17 15:20:00,
2013-04-17 11:25:00,76.4,62.9,30.17,SE,132,0.0,0.0,63,0.00,,,0.00,Wunderground v.1.15,2013-04-17 15:25:00,
2013-04-17 11:30:00,76.9,63.3,30.17,WSW,251,2.0,4.0,63,0.00,,,0.00,Wunderground v.1.15,2013-04-17 15:30:00,
2013-04-17 11:35:00,76.8,62.3,30.17,WNW,300,4.0,5.0,61,0.00,,,0.00,Wunderground v.1.15,2013-04-17 15:35:00,
2013-04-17 11:40:00,76.6,62.6,30.16,WNW,300,0.0,5.0,62,0.00,,,0.00,Wunderground v.1.15,2013-04-17 15:40:00,
2013-04-17 11:45:00,76.9,62.9,30.16,SSW,208,3.0,5.0,62,0.00,,,0.00,Wunderground v.1.15,2013-04-17 15:45:00,
2013-04-17 11:50:00,77.3,63.3,30.16,SW,220,5.0,5.0,62,0.00,,,0.00,Wunderground v.1.15,2013-04-17 15:50:00,
2013-04-17 11:55:00,77.7,63.2,30.16,SSW,211,0.0,5.0,61,0.00,,,0.00,Wunderground v.1.15,2013-04-17 15:55:00,
2013-04-17 12:00:00,77.6,62.6,30.16,West,275,5.0,5.0,60,0.00,,,0.00,Wunderground v.1.15,2013-04-17 16:00:00,
2013-04-17 12:06:00,77.4,62.9,30.16,West,265,0.0,3.0,61,0.00,,,0.00,Wunderground v.1.15,2013-04-17 16:06:00,
2013-04-17 12:11:00,77.6,63.1,30.15,West,269,0.0,6.0,61,0.00,,,0.00,Wunderground v.1.15,2013-04-17 16:11:00,
2013-04-17 12:16:00,78.0,63.5,30.15,WNW,298,2.0,5.0,61,0.00,,,0.00,Wunderground v.1.15,2013-04-17 16:16:00,
2013-04-17 12:21:00,78.3,63.3,30.15,WNW,299,0.0,5.0,60,0.00,,,0.00,Wunderground v.1.15,2013-04-17 16:21:00,
2013-04-17 12:26:00,78.7,63.2,30.15,SW,215,4.0,6.0,59,0.00,,,0.00,Wunderground v.1.15,2013-04-17 16:26:00,
2013-04-17 12:31:00,79.2,63.6,30.15,SW,224,2.0,8.0,59,0.00,,,0.00,Wunderground v.1.15,2013-04-17 16:31:00,
2013-04-17 12:37:00,80.0,63.9,30.15,SSW,196,2.0,4.0,58,0.00,,,0.00,Wunderground v.1.15,2013-04-17 16:37:00,
2013-04-17 12:42:00,80.4,63.8,30.14,SW,236,6.0,7.0,57,0.00,,,0.00,Wunderground v.1.15,2013-04-17 16:42:00,
2013-04-17 12:47:00,80.0,61.9,30.14,WSW,252,2.0,5.0,54,0.00,,,0.00,Wunderground v.1.15,2013-04-17 16:47:00,
2013-04-17 12:52:00,80.0,62.4,30.14,SW,225,2.0,8.0,55,0.00,,,0.00,Wunderground v.1.15,2013-04-17 16:52:00,
2013-04-17 12:57:00,80.3,62.7,30.14,SSW,200,1.0,6.0,55,0.00,,,0.00,Wunderground v.1.15,2013-04-17 16:57:00,
2013-04-17 13:02:00,80.6,62.9,30.13,South,182,3.0,6.0,55,0.00,,,0.00,Wunderground v.1.15,2013-04-17 17:02:00,
2013-04-17 13:07:00,81.2,63.5,30.13,East,89,1.0,6.0,55,0.00,,,0.00,Wunderground v.1.15,2013-04-17 17:07:00,
2013-04-17 13:12:00,81.6,62.8,30.13,WSW,252,0.0,6.0,53,0.00,,,0.00,Wunderground v.1.15,2013-04-17 17:12:00,
2013-04-17 13:17:00,81.5,62.7,30.13,SSW,202,0.0,6.0,53,0.00,,,0.00,Wunderground v.1.15,2013-04-17 17:17:00,
2013-04-17 13:22:00,81.4,63.2,30.13,West,267,1.0,10.0,54,0.00,,,0.00,Wunderground v.1.15,2013-04-17 17:22:00,
2013-04-17 13:27:00,81.4,62.6,30.13,SW,216,1.0,6.0,53,0.00,,,0.00,Wunderground v.1.15,2013-04-17 17:27:00,
2013-04-17 13:32:00,81.7,64.5,30.13,South,178,9.0,9.0,56,0.00,,,0.00,Wunderground v.1.15,2013-04-17 17:32:00,
2013-04-17 13:37:00,82.0,62.6,30.13,SSW,200,6.0,8.0,52,0.00,,,0.00,Wunderground v.1.15,2013-04-17 17:37:00,
2013-04-17 13:42:00,82.4,63.0,30.13,South,183,3.0,9.0,52,0.00,,,0.00,Wunderground v.1.15,2013-04-17 17:42:00,
2013-04-17 13:47:00,82.5,63.6,30.13,SSW,199,0.0,6.0,53,0.00,,,0.00,Wunderground v.1.15,2013-04-17 17:47:00,
2013-04-17 13:53:00,82.7,62.7,30.12,SSW,213,3.0,3.0,51,0.00,,,0.00,Wunderground v.1.15,2013-04-17 17:53:00,
2013-04-17 13:58:00,82.3,62.4,30.12,NW,321,4.0,8.0,51,0.00,,,0.00,Wunderground v.1.15,2013-04-17 17:58:00,
2013-04-17 14:03:00,82.3,62.9,30.12,WNW,284,5.0,6.0,52,0.00,,,0.00,Wunderground v.1.15,2013-04-17 18:03:00,
2013-04-17 14:08:00,82.8,63.9,30.11,NNE,21,2.0,6.0,53,0.00,,,0.00,Wunderground v.1.15,2013-04-17 18:08:00,
2013-04-17 14:13:00,83.1,63.1,30.11,SSE,153,1.0,2.0,51,0.00,,,0.00,Wunderground v.1.15,2013-04-17 18:13:00,
2013-04-17 14:18:00,83.4,63.4,30.11,South,188,2.0,8.0,51,0.00,,,0.00,Wunderground v.1.15,2013-04-17 18:18:00,
2013-04-17 14:23:00,83.2,63.2,30.11,SSW,199,6.0,7.0,51,0.00,,,0.00,Wunderground v.1.15,2013-04-17 18:23:00,
2013-04-17 14:28:00,83.2,63.2,30.10,SW,218,4.0,7.0,51,0.00,,,0.00,Wunderground v.1.15,2013-04-17 18:28:00,
2013-04-17 14:33:00,83.4,62.8,30.10,SSW,213,5.0,7.0,50,0.00,,,0.00,Wunderground v.1.15,2013-04-17 18:33:00,
2013-04-17 14:38:00,83.3,63.3,30.10,SSW,195,3.0,7.0,51,0.00,,,0.00,Wunderground v.1.15,2013-04-17 18:38:00,
2013-04-17 14:43:00,83.9,63.8,30.10,South,179,9.0,10.0,51,0.00,,,0.00,Wunderground v.1.15,2013-04-17 18:43:00,
2013-04-17 14:48:00,83.8,63.2,30.10,SW,218,4.0,10.0,50,0.00,,,0.00,Wunderground v.1.15,2013-04-17 18:48:00,
2013-04-17 14:53:00,84.1,64.6,30.10,ESE,123,0.0,4.0,52,0.00,,,0.00,Wunderground v.1.15,2013-04-17 18:53:00,
2013-04-17 14:58:00,84.2,64.1,30.10,NE,37,0.0,4.0,51,0.00,,,0.00,Wunderground v.1.15,2013-04-17 18:58:00,
2013-04-17 15:03:00,83.9,63.3,30.09,South,171,6.0,9.0,50,0.00,,,0.00,Wunderground v.1.15,2013-04-17 19:03:00,
2013-04-17 15:08:00,83.7,63.1,30.09,South,188,5.0,9.0,50,0.00,,,0.00,Wunderground v.1.15,2013-04-17 19:08:00,
2013-04-17 15:13:00,83.9,63.3,30.08,SSW,195,0.0,5.0,50,0.00,,,0.00,Wunderground v.1.15,2013-04-17 19:13:00,
2013-04-17 15:18:00,84.1,63.5,30.09,South,171,4.0,8.0,50,0.00,,,0.00,Wunderground v.1.15,2013-04-17 19:18:00,
2013-04-17 15:24:00,84.0,63.4,30.08,SSW,207,0.0,6.0,50,0.00,,,0.00,Wunderground v.1.15,2013-04-17 19:24:00,
2013-04-17 15:29:00,84.2,63.5,30.08,SSW,199,8.0,9.0,50,0.00,,,0.00,Wunderground v.1.15,2013-04-17 19:29:00,
2013-04-17 15:34:00,84.3,63.1,30.08,SSW,200,5.0,11.0,49,0.00,,,0.00,Wunderground v.1.15,2013-04-17 19:34:00,
2013-04-17 15:39:00,84.7,62.8,30.08,SSE,167,4.0,11.0,48,0.00,,,0.00,Wunderground v.1.15,2013-04-17 19:39:00,
2013-04-17 15:44:00,84.8,62.9,30.08,SSW,193,5.0,5.0,48,0.00,,,0.00,Wunderground v.1.15,2013-04-17 19:44:00,
2013-04-17 15:49:00,84.8,62.3,30.08,SSW,198,1.0,9.0,47,0.00,,,0.00,Wunderground v.1.15,2013-04-17 19:49:00,
2013-04-17 15:54:00,84.9,61.2,30.07,South,177,5.0,8.0,45,0.00,,,0.00,Wunderground v.1.15,2013-04-17 19:54:00,
2013-04-17 15:59:00,84.8,61.1,30.07,South,187,2.0,8.0,45,0.00,,,0.00,Wunderground v.1.15,2013-04-17 19:59:00,
2013-04-17 16:04:00,85.1,60.7,30.07,East,86,0.0,3.0,44,0.00,,,0.00,Wunderground v.1.15,2013-04-17 20:04:00,
2013-04-17 16:09:00,85.4,61.0,30.07,South,182,0.0,5.0,44,0.00,,,0.00,Wunderground v.1.15,2013-04-17 20:09:00,
2013-04-17 16:14:00,85.7,63.1,30.07,South,171,0.0,4.0,47,0.00,,,0.00,Wunderground v.1.15,2013-04-17 20:14:00,
2013-04-17 16:19:00,85.9,61.5,30.07,SSE,159,0.0,5.0,44,0.00,,,0.00,Wunderground v.1.15,2013-04-17 20:19:00,
2013-04-17 16:24:00,85.9,61.5,30.07,ESE,116,1.0,2.0,44,0.00,,,0.00,Wunderground v.1.15,2013-04-17 20:24:00,
2013-04-17 16:29:00,85.5,61.1,30.06,South,175,2.0,6.0,44,0.00,,,0.00,Wunderground v.1.15,2013-04-17 20:29:00,
2013-04-17 16:34:00,84.9,61.2,30.07,SSW,201,6.0,11.0,45,0.00,,,0.00,Wunderground v.1.15,2013-04-17 20:34:00,
2013-04-17 16:39:00,84.5,61.4,30.07,South,180,0.0,11.0,46,0.00,,,0.00,Wunderground v.1.15,2013-04-17 20:39:00,
2013-04-17 16:44:00,84.3,61.3,30.06,South,180,3.0,8.0,46,0.00,,,0.00,Wunderground v.1.15,2013-04-17 20:44:00,
2013-04-17 16:49:00,84.3,61.3,30.07,South,185,5.0,9.0,46,0.00,,,0.00,Wunderground v.1.15,2013-04-17 20:49:00,
2013-04-17 16:54:00,84.1,61.1,30.06,South,180,4.0,6.0,46,0.00,,,0.00,Wunderground v.1.15,2013-04-17 20:54:00,
2013-04-17 16:59:00,84.1,61.1,30.07,South,182,6.0,7.0,46,0.00,,,0.00,Wunderground v.1.15,2013-04-17 20:59:00,
2013-04-17 17:04:00,84.1,61.7,30.06,South,180,5.0,6.0,47,0.00,,,0.00,Wunderground v.1.15,2013-04-17 21:04:00,
2013-04-17 17:09:00,84.1,60.5,30.06,South,187,6.0,8.0,45,0.00,,,0.00,Wunderground v.1.15,2013-04-17 21:09:00,
2013-04-17 17:14:00,84.1,60.5,30.07,South,177,7.0,7.0,45,0.00,,,0.00,Wunderground v.1.15,2013-04-17 21:14:00,
2013-04-17 17:19:00,84.1,61.1,30.07,South,178,4.0,7.0,46,0.00,,,0.00,Wunderground v.1.15,2013-04-17 21:19:00,
2013-04-17 17:24:00,84.3,61.9,30.07,South,178,4.0,5.0,47,0.00,,,0.00,Wunderground v.1.15,2013-04-17 21:24:00,
2013-04-17 17:29:00,84.6,62.1,30.07,South,179,7.0,7.0,47,0.00,,,0.00,Wunderground v.1.15,2013-04-17 21:29:00,
2013-04-17 17:34:00,84.7,61.0,30.07,South,180,4.0,5.0,45,0.00,,,0.00,Wunderground v.1.15,2013-04-17 21:34:00,
2013-04-17 17:39:00,84.4,60.7,30.07,South,181,3.0,6.0,45,0.00,,,0.00,Wunderground v.1.15,2013-04-17 21:39:00,
2013-04-17 17:44:00,84.0,61.6,30.07,South,191,4.0,5.0,47,0.00,,,0.00,Wunderground v.1.15,2013-04-17 21:44:00,
2013-04-17 17:49:00,83.9,61.5,30.07,South,186,4.0,6.0,47,0.00,,,0.00,Wunderground v.1.15,2013-04-17 21:49:00,
2013-04-17 17:54:00,83.6,61.2,30.07,SW,216,6.0,6.0,47,0.00,,,0.00,Wunderground v.1.15,2013-04-17 21:54:00,
2013-04-17 17:59:00,83.4,61.7,30.07,SSW,200,2.0,7.0,48,0.00,,,0.00,Wunderground v.1.15,2013-04-17 21:59:00,
2013-04-17 18:04:00,83.4,62.2,30.07,SSW,200,4.0,5.0,49,0.00,,,0.00,Wunderground v.1.15,2013-04-17 22:04:00,
2013-04-17 18:09:00,83.4,61.7,30.07,SW,218,3.0,5.0,48,0.00,,,0.00,Wunderground v.1.15,2013-04-17 22:09:00,
2013-04-17 18:14:00,83.4,61.7,30.07,SW,217,3.0,5.0,48,0.00,,,0.00,Wunderground v.1.15,2013-04-17 22:14:00,
2013-04-17 18:19:00,83.4,61.7,30.07,SSW,213,0.0,5.0,48,0.00,,,0.00,Wunderground v.1.15,2013-04-17 22:19:00,
2013-04-17 18:24:00,83.5,61.7,30.07,SSW,202,1.0,4.0,48,0.00,,,0.00,Wunderground v.1.15,2013-04-17 22:24:00,
2013-04-17 18:29:00,83.6,62.4,30.07,SSW,202,0.0,4.0,49,0.00,,,0.00,Wunderground v.1.15,2013-04-17 22:29:00,
2013-04-17 18:34:00,83.6,61.8,30.07,SSW,198,1.0,5.0,48,0.00,,,0.00,Wunderground v.1.15,2013-04-17 22:34:00,
2013-04-17 18:39:00,83.5,62.3,30.07,SSW,198,3.0,5.0,49,0.00,,,0.00,Wunderground v.1.15,2013-04-17 22:39:00,
2013-04-17 18:44:00,83.3,62.1,30.07,SSW,198,4.0,5.0,49,0.00,,,0.00,Wunderground v.1.15,2013-04-17 22:44:00,
2013-04-17 18:50:00,83.0,62.4,30.07,SSW,198,3.0,5.0,50,0.00,,,0.00,Wunderground v.1.15,2013-04-17 22:50:00,
2013-04-17 18:55:00,82.8,62.8,30.07,SSW,198,3.0,3.0,51,0.00,,,0.00,Wunderground v.1.15,2013-04-17 22:55:00,
2013-04-17 19:00:00,82.6,62.1,30.07,SSW,198,2.0,4.0,50,0.00,,,0.00,Wunderground v.1.15,2013-04-17 23:00:00,
2013-04-17 19:05:00,82.3,61.8,30.07,SSW,198,1.0,4.0,50,0.00,,,0.00,Wunderground v.1.15,2013-04-17 23:05:00,
2013-04-17 19:10:00,82.2,61.1,30.07,SSW,198,1.0,4.0,49,0.00,,,0.00,Wunderground v.1.15,2013-04-17 23:10:00,
2013-04-17 19:15:00,82.0,62.1,30.07,SSW,198,0.0,2.0,51,0.00,,,0.00,Wunderground v.1.15,2013-04-17 23:15:00,
2013-04-17 19:20:00,81.6,63.9,30.07,SSW,198,0.0,2.0,55,0.00,,,0.00,Wunderground v.1.15,2013-04-17 23:20:00,
2013-04-17 19:25:00,81.0,63.3,30.07,SSW,198,0.0,0.0,55,0.00,,,0.00,Wunderground v.1.15,2013-04-17 23:25:00,
2013-04-17 19:30:00,80.4,62.8,30.08,SSW,198,0.0,0.0,55,0.00,,,0.00,Wunderground v.1.15,2013-04-17 23:30:00,
2013-04-17 19:35:00,79.9,62.3,30.07,SSW,198,0.0,0.0,55,0.00,,,0.00,Wunderground v.1.15,2013-04-17 23:35:00,
2013-04-17 19:40:00,79.5,63.9,30.07,SSW,198,0.0,0.0,59,0.00,,,0.00,Wunderground v.1.15,2013-04-17 23:40:00,
2013-04-17 19:45:00,78.5,63.9,30.08,ENE,76,5.0,9.0,61,0.00,,,0.00,Wunderground v.1.15,2013-04-17 23:45:00,
2013-04-17 19:50:00,76.9,63.8,30.08,ENE,68,3.0,9.0,64,0.00,,,0.00,Wunderground v.1.15,2013-04-17 23:50:00,
2013-04-17 19:55:00,75.9,63.7,30.08,ENE,70,7.0,7.0,66,0.00,,,0.00,Wunderground v.1.15,2013-04-17 23:55:00,
2013-04-17 20:00:00,75.0,63.7,30.08,NE,49,5.0,8.0,68,0.00,,,0.00,Wunderground v.1.15,2013-04-18 00:00:00,
2013-04-17 20:05:00,74.5,64.1,30.08,ENE,63,3.0,6.0,70,0.00,,,0.00,Wunderground v.1.15,2013-04-18 00:05:00,
2013-04-17 20:10:00,74.1,64.1,30.08,ENE,66,3.0,6.0,71,0.00,,,0.00,Wunderground v.1.15,2013-04-18 00:10:00,
2013-04-17 20:15:00,73.9,63.9,30.08,East,97,4.0,4.0,71,0.00,,,0.00,Wunderground v.1.15,2013-04-18 00:15:00,
2013-04-17 20:20:00,73.6,64.0,30.08,NE,36,1.0,4.0,72,0.00,,,0.00,Wunderground v.1.15,2013-04-18 00:20:00,
2013-04-17 20:25:00,73.4,63.8,30.08,NE,36,2.0,2.0,72,0.00,,,0.00,Wunderground v.1.15,2013-04-18 00:25:00,
2013-04-17 20:30:00,73.1,63.5,30.08,NE,36,0.0,2.0,72,0.00,,,0.00,Wunderground v.1.15,2013-04-18 00:30:00,
2013-04-17 20:35:00,73.0,63.8,30.08,NE,36,0.0,1.0,73,0.00,,,0.00,Wunderground v.1.15,2013-04-18 00:35:00,
2013-04-17 20:40:00,72.8,63.6,30.08,NE,36,0.0,1.0,73,0.00,,,0.00,Wunderground v.1.15,2013-04-18 00:40:00,
2013-04-17 20:45:00,72.6,63.8,30.07,NE,36,0.0,0.0,74,0.00,,,0.00,Wunderground v.1.15,2013-04-18 00:45:00,
2013-04-17 20:50:00,72.4,63.6,30.08,NE,36,0.0,0.0,74,0.00,,,0.00,Wunderground v.1.15,2013-04-18 00:50:00,
2013-04-17 20:55:00,72.1,63.7,30.08,WSW,240,0.0,4.0,75,0.00,,,0.00,Wunderground v.1.15,2013-04-18 00:55:00,
2013-04-17 21:01:00,71.7,63.7,30.08,WSW,240,0.0,4.0,76,0.00,,,0.00,Wunderground v.1.15,2013-04-18 01:01:00,
2013-04-17 21:06:00,71.4,63.8,30.07,WSW,240,0.0,1.0,77,0.00,,,0.00,Wunderground v.1.15,2013-04-18 01:06:00,
2013-04-17 21:11:00,71.3,63.7,30.07,WSW,240,0.0,1.0,77,0.00,,,0.00,Wunderground v.1.15,2013-04-18 01:11:00,
2013-04-17 21:16:00,71.2,64.0,30.07,WSW,240,0.0,0.0,78,0.00,,,0.00,Wunderground v.1.15,2013-04-18 01:16:00,
2013-04-17 21:21:00,70.9,63.7,30.07,WSW,240,0.0,0.0,78,0.00,,,0.00,Wunderground v.1.15,2013-04-18 01:21:00,
2013-04-17 21:26:00,70.5,63.7,30.07,WSW,240,0.0,0.0,79,0.00,,,0.00,Wunderground v.1.15,2013-04-18 01:26:00,
2013-04-17 21:31:00,70.1,63.3,30.07,WSW,240,0.0,0.0,79,0.00,,,0.00,Wunderground v.1.15,2013-04-18 01:31:00,
2013-04-17 21:36:00,69.8,63.3,30.07,WSW,240,0.0,0.0,80,0.00,,,0.00,Wunderground v.1.15,2013-04-18 01:36:00,
2013-04-17 21:41:00,69.6,63.5,30.07,WSW,240,0.0,0.0,81,0.00,,,0.00,Wunderground v.1.15,2013-04-18 01:41:00,
2013-04-17 21:46:00,69.4,63.3,30.07,WSW,240,0.0,0.0,81,0.00,,,0.00,Wunderground v.1.15,2013-04-18 01:46:00,
2013-04-17 21:51:00,69.2,63.5,30.08,WSW,240,0.0,0.0,82,0.00,,,0.00,Wunderground v.1.15,2013-04-18 01:51:00,
2013-04-17 21:56:00,68.9,63.5,30.07,WSW,240,0.0,0.0,83,0.00,,,0.00,Wunderground v.1.15,2013-04-18 01:56:00,
2013-04-17 22:01:00,68.5,63.1,30.07,WSW,240,0.0,0.0,83,0.00,,,0.00,Wunderground v.1.15,2013-04-18 02:01:00,
2013-04-17 22:06:00,68.1,63.1,30.07,WSW,240,0.0,0.0,84,0.00,,,0.00,Wunderground v.1.15,2013-04-18 02:06:00,
2013-04-17 22:11:00,67.9,62.9,30.07,WSW,240,0.0,0.0,84,0.00,,,0.00,Wunderground v.1.15,2013-04-18 02:11:00,
2013-04-17 22:17:00,67.7,63.0,30.07,WSW,240,0.0,0.0,85,0.00,,,0.00,Wunderground v.1.15,2013-04-18 02:17:00,
2013-04-17 22:22:00,67.7,63.0,30.07,WSW,240,0.0,0.0,85,0.00,,,0.00,Wunderground v.1.15,2013-04-18 02:22:00,
2013-04-17 22:27:00,67.7,63.0,30.07,WSW,240,0.0,0.0,85,0.00,,,0.00,Wunderground v.1.15,2013-04-18 02:27:00,
2013-04-17 22:32:00,67.8,63.1,30.07,WSW,240,0.0,0.0,85,0.00,,,0.00,Wunderground v.1.15,2013-04-18 02:32:00,
2013-04-17 22:37:00,67.8,63.1,30.07,WSW,240,0.0,0.0,85,0.00,,,0.00,Wunderground v.1.15,2013-04-18 02:37:00,
2013-04-17 22:42:00,67.9,63.2,30.07,WSW,240,0.0,0.0,85,0.00,,,0.00,Wunderground v.1.15,2013-04-18 02:42:00,
2013-04-17 22:47:00,68.0,63.0,30.07,WSW,240,0.0,0.0,84,0.00,,,0.00,Wunderground v.1.15,2013-04-18 02:47:00,
2013-04-17 22:52:00,67.9,62.9,30.07,WSW,240,0.0,0.0,84,0.00,,,0.00,Wunderground v.1.15,2013-04-18 02:52:00,
2013-04-17 22:57:00,67.6,62.9,30.07,WSW,240,0.0,0.0,85,0.00,,,0.00,Wunderground v.1.15,2013-04-18 02:57:00,
2013-04-17 23:02:00,67.4,63.1,30.07,WSW,240,0.0,0.0,86,0.00,,,0.00,Wunderground v.1.15,2013-04-18 03:02:00,
2013-04-17 23:07:00,67.1,63.1,30.07,WSW,240,0.0,0.0,87,0.00,,,0.00,Wunderground v.1.15,2013-04-18 03:07:00,
2013-04-17 23:12:00,66.9,62.9,30.07,WSW,240,0.0,0.0,87,0.00,,,0.00,Wunderground v.1.15,2013-04-18 03:12:00,
2013-04-17 23:17:00,66.6,62.6,30.07,WSW,240,3.0,3.0,87,0.00,,,0.00,Wunderground v.1.15,2013-04-18 03:17:00,
2013-04-17 23:22:00,66.2,62.5,30.07,WSW,240,0.0,3.0,88,0.00,,,0.00,Wunderground v.1.15,2013-04-18 03:22:00,
2013-04-17 23:27:00,66.0,62.3,30.07,WSW,240,0.0,1.0,88,0.00,,,0.00,Wunderground v.1.15,2013-04-18 03:27:00,
2013-04-17 23:32:00,65.8,62.1,30.07,WSW,240,0.0,1.0,88,0.00,,,0.00,Wunderground v.1.15,2013-04-18 03:32:00,
2013-04-17 23:37:00,65.7,62.4,30.08,WSW,240,2.0,3.0,89,0.00,,,0.00,Wunderground v.1.15,2013-04-18 03:37:00,
2013-04-17 23:42:00,65.6,62.6,30.08,WSW,240,0.0,1.0,90,0.00,,,0.00,Wunderground v.1.15,2013-04-18 03:42:00,
2013-04-17 23:47:00,69.3,66.9,30.04,SSW,205,0.0,0.0,92,0.10,,,0.07,Wunderground v.1.15,2013-04-18 03:47:00,
2013-04-17 23:48:00,65.7,62.7,30.08,WSW,240,0.0,1.0,90,0.00,,,0.00,Wunderground v.1.15,2013-04-18 03:48:00,
2013-04-17 23:49:00,69.3,66.9,30.04,SSW,205,0.0,0.0,92,0.08,,,0.07,Wunderground v.1.15,2013-04-18 03:49:00,
2013-04-17 23:50:00,69.2,66.8,30.04,SSW,205,0.0,0.0,92,0.07,,,0.07,Wunderground v.1.15,2013-04-18 03:50:00,
2013-04-17 23:51:00,69.3,66.9,30.04,SSW,205,0.0,0.0,92,0.06,,,0.07,Wunderground v.1.15,2013-04-18 03:51:00,
2013-04-17 23:52:00,69.2,66.8,30.04,SSW,205,0.0,0.0,92,0.06,,,0.07,Wunderground v.1.15,2013-04-18 03:52:00,
2013-04-17 23:53:00,65.9,62.9,30.08,WSW,240,0.0,0.0,90,0.00,,,0.00,Wunderground v.1.15,2013-04-18 03:53:00,
2013-04-17 23:54:00,69.2,67.1,30.04,SSW,205,0.0,0.0,93,0.05,,,0.01,Wunderground v.1.15,2013-04-18 03:54:00,
2013-04-17 23:55:00,69.2,66.8,30.04,SSW,205,2.0,4.0,92,0.05,,,0.01,Wunderground v.1.15,2013-04-18 03:55:00,
2013-04-17 23:56:00,69.2,66.8,30.04,SSW,205,2.0,4.0,92,0.05,,,0.01,Wunderground v.1.15,2013-04-18 03:56:00,
2013-04-17 23:57:00,69.1,66.7,30.04,SSW,205,3.0,4.0,92,0.05,,,0.01,Wunderground v.1.15,2013-04-18 03:57:00,
2013-04-17 23:58:00,65.9,62.9,30.08,WSW,240,0.0,0.0,90,0.00,,,0.00,Wunderground v.1.15,2013-04-18 03:58:00,